createdAt,value
2022-08-29T00:01:25.950Z,37.44
2022-08-29T00:04:00.228Z,37.51
2022-08-29T00:06:33.297Z,37.49
2022-08-29T00:09:07.925Z,37.63
2022-08-29T00:11:43.422Z,37.75
2022-08-29T00:14:23.304Z,37.84
2022-08-29T00:16:55.945Z,37.95
2022-08-29T00:19:32.394Z,37.97
2022-08-29T00:22:11.260Z,37.96
2022-08-29T00:24:45.079Z,38.10
2022-08-29T00:27:17.564Z,38.16
2022-08-29T00:29:48.361Z,38.22
2022-08-29T00:32:22.886Z,38.37
2022-08-29T00:34:54.069Z,38.36
2022-08-29T00:37:28.270Z,38.32
2022-08-29T00:40:01.957Z,38.72
2022-08-29T00:42:38.245Z,38.63
2022-08-29T00:45:12.305Z,38.78
2022-08-29T00:47:45.821Z,38.83
2022-08-29T00:50:17.966Z,38.84
2022-08-29T00:52:54.313Z,39.12
2022-08-29T00:55:26.278Z,38.98
2022-08-29T00:58:04.609Z,39.27
2022-08-29T01:00:36.140Z,39.37
2022-08-29T01:03:10.521Z,39.54
2022-08-29T01:05:43.349Z,39.67
2022-08-29T01:08:16.691Z,39.59
2022-08-29T01:11:04.762Z,39.58
2022-08-29T01:13:37.127Z,39.71
2022-08-29T01:16:08.183Z,39.92
2022-08-29T01:18:42.666Z,39.90
2022-08-29T01:21:15.046Z,39.99
2022-08-29T01:23:49.523Z,40.00
2022-08-29T01:26:23.182Z,40.00
2022-08-29T01:28:55.201Z,40.06
2022-08-29T01:31:37.384Z,40.13
2022-08-29T01:34:18.343Z,40.26
2022-08-29T01:36:53.681Z,40.31
2022-08-29T01:39:30.364Z,40.40
2022-08-29T01:42:06.087Z,40.48
2022-08-29T01:44:37.353Z,40.54
2022-08-29T01:47:12.506Z,40.57
2022-08-29T01:49:46.130Z,40.62
2022-08-29T01:52:18.178Z,40.68
2022-08-29T01:54:52.307Z,40.77
2022-08-29T01:57:23.141Z,40.89
2022-08-29T01:59:54.147Z,40.83
2022-08-29T02:02:26.125Z,40.84
2022-08-29T02:04:59.729Z,40.81
2022-08-29T02:07:31.077Z,40.85
2022-08-29T02:10:01.897Z,40.92
2022-08-29T02:12:36.397Z,40.89
2022-08-29T02:15:11.363Z,40.84
2022-08-29T02:17:42.299Z,40.93
2022-08-29T02:20:16.483Z,40.88
2022-08-29T02:22:49.558Z,41.02
2022-08-29T02:25:37.522Z,41.06
2022-08-29T02:28:13.337Z,40.84
2022-08-29T02:30:45.202Z,41.08
2022-08-29T02:33:26.636Z,41.08
2022-08-29T02:36:00.115Z,41.03
2022-08-29T02:38:38.596Z,41.10
2022-08-29T02:41:14.036Z,41.13
2022-08-29T02:43:49.817Z,41.25
2022-08-29T02:46:22.882Z,41.27
2022-08-29T02:49:01.654Z,41.19
2022-08-29T02:51:35.558Z,41.21
2022-08-29T02:54:11.032Z,41.28
2022-08-29T02:56:44.504Z,41.40
2022-08-29T02:59:15.491Z,41.50
2022-08-29T03:01:49.735Z,41.52
2022-08-29T03:04:20.577Z,41.56
2022-08-29T03:06:54.147Z,41.68
2022-08-29T03:09:28.965Z,41.62
2022-08-29T03:12:01.678Z,41.67
2022-08-29T03:14:34.862Z,41.57
2022-08-29T03:17:09.443Z,41.81
2022-08-29T03:19:42.069Z,42.01
2022-08-29T03:22:15.813Z,42.01
2022-08-29T03:24:48.282Z,41.94
2022-08-29T03:27:19.613Z,42.15
2022-08-29T03:29:56.944Z,42.02
2022-08-29T03:32:28.047Z,42.31
2022-08-29T03:35:01.545Z,42.28
2022-08-29T03:37:35.839Z,42.27
2022-08-29T03:40:07.060Z,42.31
2022-08-29T03:42:37.912Z,42.16
2022-08-29T03:45:11.589Z,42.29
2022-08-29T03:47:46.417Z,42.48
2022-08-29T03:50:20.302Z,42.59
2022-08-29T03:52:54.080Z,42.64
2022-08-29T03:55:26.776Z,42.57
2022-08-29T03:58:02.503Z,42.59
2022-08-29T04:00:36.452Z,42.72
2022-08-29T04:03:08.308Z,42.67
2022-08-29T04:05:43.627Z,42.70
2022-08-29T04:08:17.155Z,42.67
2022-08-29T04:10:50.071Z,42.72
2022-08-29T04:13:22.081Z,42.57
2022-08-29T04:15:56.328Z,42.47
2022-08-29T04:18:34.053Z,42.69
2022-08-29T04:21:08.184Z,42.55
2022-08-29T04:23:42.103Z,42.52
2022-08-29T04:26:35.519Z,42.62
2022-08-29T04:29:07.290Z,42.62
2022-08-29T04:31:41.125Z,42.50
2022-08-29T04:34:12.804Z,42.73
2022-08-29T04:36:45.418Z,42.52
2022-08-29T04:39:16.575Z,42.56
2022-08-29T04:41:49.615Z,42.67
2022-08-29T04:44:22.889Z,42.26
2022-08-29T04:47:01.760Z,42.34
2022-08-29T04:49:34.131Z,42.23
2022-08-29T04:52:11.776Z,42.45
2022-08-29T04:54:45.758Z,42.57
2022-08-29T04:57:18.355Z,42.03
2022-08-29T04:59:54.220Z,42.36
2022-08-29T05:02:26.195Z,42.33
2022-08-29T05:04:56.943Z,42.40
2022-08-29T05:07:31.264Z,42.12
2022-08-29T05:10:07.745Z,42.13
2022-08-29T05:12:40.786Z,42.15
2022-08-29T05:15:16.851Z,42.06
2022-08-29T05:17:49.732Z,42.08
2022-08-29T05:20:23.121Z,42.20
2022-08-29T05:22:53.852Z,41.91
2022-08-29T05:25:28.119Z,41.84
2022-08-29T05:27:59.575Z,41.89
2022-08-29T05:30:35.075Z,41.68
2022-08-29T05:33:08.915Z,41.65
2022-08-29T05:35:42.254Z,41.65
2022-08-29T05:38:13.734Z,41.50
2022-08-29T05:40:44.559Z,41.43
2022-08-29T05:43:17.723Z,41.49
2022-08-29T05:45:51.426Z,41.51
2022-08-29T05:48:22.607Z,41.14
2022-08-29T05:50:55.953Z,41.34
2022-08-29T05:53:27.940Z,41.23
2022-08-29T05:55:59.691Z,41.46
2022-08-29T05:58:35.041Z,41.42
2022-08-29T06:01:05.994Z,41.35
2022-08-29T06:03:45.852Z,41.19
2022-08-29T06:06:18.952Z,41.27
2022-08-29T06:08:51.385Z,41.12
2022-08-29T06:11:28.167Z,40.91
2022-08-29T06:14:02.320Z,40.95
2022-08-29T06:16:33.727Z,41.08
2022-08-29T06:19:04.435Z,40.90
2022-08-29T06:21:36.133Z,40.77
2022-08-29T06:24:08.817Z,40.66
2022-08-29T06:26:44.686Z,40.54
2022-08-29T06:29:16.784Z,40.37
2022-08-29T06:31:50.033Z,40.38
2022-08-29T06:34:21.830Z,40.55
2022-08-29T06:36:57.644Z,40.15
2022-08-29T06:39:30.936Z,39.93
2022-08-29T06:42:05.242Z,39.87
2022-08-29T06:44:36.087Z,39.63
2022-08-29T06:47:10.593Z,39.40
2022-08-29T06:49:42.533Z,39.21
2022-08-29T06:52:15.703Z,39.13
2022-08-29T06:54:48.113Z,38.98
2022-08-29T06:57:18.926Z,38.60
2022-08-29T06:59:49.614Z,38.38
2022-08-29T07:02:26.583Z,38.12
2022-08-29T07:05:00.973Z,38.44
2022-08-29T07:07:33.550Z,38.25
2022-08-29T07:10:10.135Z,37.97
2022-08-29T07:12:44.786Z,37.71
2022-08-29T07:15:18.544Z,37.52
2022-08-29T07:17:50.929Z,37.39
2022-08-29T07:20:21.752Z,37.15
2022-08-29T07:22:54.685Z,37.03
2022-08-29T07:25:29.443Z,36.94
2022-08-29T07:28:00.331Z,36.87
2022-08-29T07:30:36.206Z,36.58
2022-08-29T07:33:09.635Z,36.66
2022-08-29T07:35:43.865Z,36.10
2022-08-29T07:38:14.877Z,35.94
2022-08-29T07:40:45.745Z,35.82
2022-08-29T07:43:20.477Z,35.70
2022-08-29T07:45:54.340Z,35.73
2022-08-29T07:48:25.833Z,35.68
2022-08-29T07:50:58.177Z,35.44
2022-08-29T07:53:28.940Z,35.40
2022-08-29T07:56:00.926Z,35.32
2022-08-29T07:58:34.098Z,35.20
2022-08-29T08:01:07.756Z,35.32
2022-08-29T08:03:42.899Z,35.13
2022-08-29T08:06:13.772Z,34.95
2022-08-29T08:08:44.921Z,34.85
2022-08-29T08:11:15.848Z,34.79
2022-08-29T08:13:52.830Z,34.78
2022-08-29T08:16:24.357Z,34.71
2022-08-29T08:18:55.304Z,34.46
2022-08-29T08:21:26.550Z,34.25
2022-08-29T08:23:58.697Z,34.44
2022-08-29T08:26:29.539Z,34.28
2022-08-29T08:29:03.472Z,34.08
2022-08-29T08:31:36.257Z,33.82
2022-08-29T08:34:10.205Z,33.85
2022-08-29T08:36:43.040Z,33.72
2022-08-29T08:39:13.927Z,33.51
2022-08-29T08:41:53.649Z,33.33
2022-08-29T08:44:51.623Z,33.04
2022-08-29T08:47:26.622Z,33.19
2022-08-29T08:49:58.488Z,33.31
2022-08-29T08:52:32.688Z,33.06
2022-08-29T08:55:06.834Z,32.65
2022-08-29T08:57:42.643Z,32.69
2022-08-29T09:00:14.552Z,32.47
2022-08-29T09:02:49.300Z,32.34
2022-08-29T09:05:25.448Z,32.16
2022-08-29T09:08:03.065Z,31.85
2022-08-29T09:10:36.090Z,31.78
2022-08-29T09:13:11.846Z,31.54
2022-08-29T09:15:46.450Z,31.37
2022-08-29T09:18:24.128Z,31.52
2022-08-29T09:20:57.211Z,31.39
2022-08-29T09:23:32.541Z,31.28
2022-08-29T09:26:03.474Z,31.11
2022-08-29T09:28:35.042Z,31.06
2022-08-29T09:31:26.018Z,30.95
2022-08-29T09:34:00.241Z,30.53
2022-08-29T09:36:39.644Z,30.14
2022-08-29T09:39:18.079Z,29.99
2022-08-29T09:41:53.141Z,30.19
2022-08-29T09:44:27.926Z,30.07
2022-08-29T09:47:13.185Z,29.81
2022-08-29T09:49:47.071Z,29.43
2022-08-29T09:52:25.682Z,29.48
2022-08-29T09:54:57.905Z,29.03
2022-08-29T09:57:33.282Z,29.04
2022-08-29T10:00:14.065Z,28.91
2022-08-29T10:02:51.052Z,28.57
2022-08-29T10:05:41.601Z,28.13
2022-08-29T10:08:26.219Z,28.00
2022-08-29T10:10:58.232Z,27.54
2022-08-29T10:13:34.265Z,27.62
2022-08-29T10:16:08.785Z,27.28
2022-08-29T10:18:43.148Z,26.97
2022-08-29T10:21:20.468Z,26.25
2022-08-29T10:24:07.825Z,26.21
2022-08-29T10:26:42.822Z,26.12
2022-08-29T10:29:20.951Z,25.70
2022-08-29T10:31:53.085Z,25.67
2022-08-29T10:34:32.206Z,25.60
2022-08-29T10:37:03.728Z,25.22
2022-08-29T10:39:38.928Z,25.30
2022-08-29T10:42:11.369Z,25.30
2022-08-29T10:44:51.941Z,24.93
2022-08-29T10:47:26.323Z,24.69
2022-08-29T10:50:03.334Z,24.92
2022-08-29T10:52:37.658Z,24.91
2022-08-29T10:55:11.656Z,24.62
2022-08-29T10:57:56.286Z,24.49
2022-08-29T11:00:31.425Z,24.13
2022-08-29T11:03:09.524Z,24.23
2022-08-29T11:05:42.462Z,24.21
2022-08-29T11:08:16.426Z,24.18
2022-08-29T11:10:50.174Z,23.94
2022-08-29T11:13:23.405Z,23.84
2022-08-29T11:16:02.559Z,23.46
2022-08-29T11:18:36.625Z,23.34
2022-08-29T11:21:25.523Z,23.31
2022-08-29T11:24:01.174Z,23.07
2022-08-29T11:26:42.128Z,22.64
2022-08-29T11:29:16.362Z,22.71
2022-08-29T11:31:50.332Z,22.27
2022-08-29T11:34:29.523Z,22.20
2022-08-29T11:37:08.717Z,22.04
2022-08-29T11:40:00.581Z,22.05
2022-08-29T11:45:29.666Z,21.73
2022-08-29T11:48:20.724Z,21.47
2022-08-29T11:50:51.769Z,21.35
2022-08-29T11:53:34.094Z,21.29
2022-08-29T11:56:27.833Z,21.13
2022-08-29T11:59:02.025Z,20.90
2022-08-29T12:01:52.355Z,20.86
2022-08-29T12:04:36.595Z,20.39
2022-08-29T12:07:07.530Z,20.29
2022-08-29T12:09:44.451Z,20.10
2022-08-29T12:12:45.694Z,19.99
2022-08-29T12:15:42.095Z,19.80
2022-08-29T12:18:36.729Z,19.54
2022-08-29T12:21:21.482Z,19.37
2022-08-29T12:23:52.247Z,19.18
2022-08-29T12:26:36.487Z,18.79
2022-08-29T12:29:10.559Z,18.87
2022-08-29T12:32:08.704Z,18.87
2022-08-29T12:34:42.917Z,18.65
2022-08-29T12:37:37.115Z,18.31
2022-08-29T12:40:22.850Z,18.35
2022-08-29T12:43:04.179Z,18.00
2022-08-29T12:45:37.305Z,17.87
2022-08-29T12:48:09.772Z,18.03
2022-08-29T12:50:45.465Z,17.89
2022-08-29T12:53:19.901Z,17.51
2022-08-29T12:55:51.163Z,17.18
2022-08-29T12:58:38.230Z,17.50
2022-08-29T13:01:22.480Z,17.47
2022-08-29T13:04:03.715Z,17.22
2022-08-29T13:06:37.629Z,17.10
2022-08-29T13:09:11.568Z,17.00
2022-08-29T13:11:50.508Z,16.84
2022-08-29T13:14:25.166Z,16.69
2022-08-29T13:16:55.985Z,16.35
2022-08-29T13:19:29.264Z,16.22
2022-08-29T13:22:05.256Z,16.54
2022-08-29T13:24:37.787Z,16.37
2022-08-29T13:27:10.420Z,16.50
2022-08-29T13:29:42.430Z,16.17
2022-08-29T13:32:24.155Z,16.07
2022-08-29T13:35:06.564Z,15.93
2022-08-29T13:37:45.649Z,15.88
2022-08-29T13:40:35.008Z,16.04
2022-08-29T13:43:15.168Z,16.18
2022-08-29T13:45:45.906Z,16.03
2022-08-29T13:48:23.191Z,15.68
2022-08-29T13:50:56.044Z,15.43
2022-08-29T13:53:31.087Z,15.18
2022-08-29T13:56:03.968Z,15.23
2022-08-29T13:58:37.576Z,15.00
2022-08-29T14:04:27.137Z,14.99
2022-08-29T14:06:52.829Z,15.02
2022-08-29T14:09:24.375Z,14.86
2022-08-29T14:11:57.120Z,14.81
2022-08-29T14:14:34.322Z,14.93
2022-08-29T14:17:07.522Z,14.96
2022-08-29T14:19:38.852Z,14.97
2022-08-29T14:22:09.769Z,15.01
2022-08-29T14:24:40.784Z,15.05
2022-08-29T14:27:15.345Z,15.02
2022-08-29T14:29:47.880Z,15.25
2022-08-29T14:32:18.761Z,15.38
2022-08-29T14:34:52.633Z,15.33
2022-08-29T14:37:24.289Z,15.36
2022-08-29T14:39:59.161Z,15.22
2022-08-29T14:42:30.159Z,15.34
2022-08-29T14:45:08.147Z,15.30
2022-08-29T14:47:41.828Z,15.45
2022-08-29T14:50:14.607Z,15.25
2022-08-29T14:52:46.484Z,15.43
2022-08-29T14:55:18.395Z,15.56
2022-08-29T14:57:50.765Z,15.47
2022-08-29T15:00:28.004Z,15.61
2022-08-29T15:03:01.683Z,15.56
2022-08-29T15:05:34.088Z,15.82
2022-08-29T15:08:06.782Z,15.65
2022-08-29T15:10:38.203Z,15.62
2022-08-29T15:13:09.107Z,15.59
2022-08-29T15:15:44.351Z,15.73
2022-08-29T15:18:48.115Z,15.70
2022-08-29T15:21:11.521Z,15.71
2022-08-29T15:23:48.149Z,15.87
2022-08-29T15:26:21.835Z,15.76
2022-08-29T15:28:57.092Z,15.90
2022-08-29T15:31:30.054Z,16.00
2022-08-29T15:34:00.870Z,15.96
2022-08-29T15:36:33.937Z,16.01
2022-08-29T15:39:06.132Z,16.10
2022-08-29T15:41:41.016Z,16.31
2022-08-29T15:44:12.856Z,16.04
2022-08-29T15:46:50.780Z,16.35
2022-08-29T15:49:25.793Z,16.60
2022-08-29T15:51:56.663Z,16.49
2022-08-29T15:54:28.683Z,16.85
2022-08-29T15:56:59.640Z,16.89
2022-08-29T15:59:56.692Z,17.03
2022-08-29T16:02:26.432Z,17.20
2022-08-29T16:05:02.448Z,17.53
2022-08-29T16:07:35.401Z,17.53
2022-08-29T16:10:11.165Z,17.87
2022-08-29T16:12:45.085Z,17.73
2022-08-29T16:15:20.605Z,17.82
2022-08-29T16:17:58.743Z,18.26
2022-08-29T16:20:32.892Z,18.15
2022-08-29T16:23:11.429Z,18.45
2022-08-29T16:25:48.669Z,18.57
2022-08-29T16:28:19.912Z,18.77
2022-08-29T16:30:52.154Z,18.79
2022-08-29T16:33:22.850Z,18.88
2022-08-29T16:35:56.325Z,19.05
2022-08-29T16:38:28.379Z,19.17
2022-08-29T16:41:02.453Z,19.18
2022-08-29T16:43:33.413Z,19.24
2022-08-29T16:46:11.041Z,19.48
2022-08-29T16:48:45.309Z,19.73
2022-08-29T16:51:21.208Z,19.71
2022-08-29T16:53:58.986Z,19.84
2022-08-29T16:56:33.558Z,19.98
2022-08-29T16:59:09.615Z,20.09
2022-08-29T17:01:43.328Z,20.21
2022-08-29T17:04:16.048Z,20.43
2022-08-29T17:06:48.281Z,20.51
2022-08-29T17:09:18.222Z,20.61
2022-08-29T17:11:48.405Z,20.59
2022-08-29T17:14:17.925Z,20.70
2022-08-29T17:16:49.742Z,20.97
2022-08-29T17:19:21.106Z,21.07
2022-08-29T17:21:56.245Z,21.32
2022-08-29T17:24:27.167Z,21.39
2022-08-29T17:26:59.072Z,21.34
2022-08-29T17:29:37.467Z,21.47
2022-08-29T17:32:11.166Z,21.53
2022-08-29T17:34:48.939Z,21.55
2022-08-29T17:37:24.211Z,21.77
2022-08-29T17:39:57.407Z,21.81
2022-08-29T17:42:36.528Z,22.09
2022-08-29T17:45:11.471Z,22.19
2022-08-29T17:47:45.109Z,22.34
2022-08-29T17:50:20.467Z,22.37
2022-08-29T17:52:51.484Z,22.57
2022-08-29T17:55:22.335Z,22.53
2022-08-29T17:57:54.687Z,22.51
2022-08-29T18:00:27.068Z,22.66
2022-08-29T18:02:58.997Z,23.05
2022-08-29T18:05:31.092Z,23.16
2022-08-29T18:08:01.924Z,23.01
2022-08-29T18:10:37.457Z,23.49
2022-08-29T18:13:09.491Z,23.31
2022-08-29T18:15:46.577Z,23.59
2022-08-29T18:18:22.485Z,23.53
2022-08-29T18:20:56.780Z,24.04
2022-08-29T18:23:27.578Z,24.04
2022-08-29T18:26:02.125Z,24.07
2022-08-29T18:28:39.428Z,24.23
2022-08-29T18:31:18.664Z,24.23
2022-08-29T18:34:04.894Z,24.45
2022-08-29T18:36:36.963Z,24.50
2022-08-29T18:39:20.020Z,24.52
2022-08-29T18:41:56.163Z,24.61
2022-08-29T18:44:32.304Z,24.95
2022-08-29T18:47:11.281Z,25.05
2022-08-29T18:49:59.556Z,25.05
2022-08-29T18:52:36.650Z,25.19
2022-08-29T18:55:15.733Z,25.40
2022-08-29T18:57:53.687Z,25.46
2022-08-29T19:00:51.843Z,25.52
2022-08-29T19:03:24.622Z,25.85
2022-08-29T19:05:58.323Z,25.94
2022-08-29T19:08:37.579Z,25.92
2022-08-29T19:11:11.270Z,26.24
2022-08-29T19:13:45.328Z,26.32
2022-08-29T19:16:21.910Z,26.33
2022-08-29T19:18:53.846Z,26.46
2022-08-29T19:21:28.267Z,26.54
2022-08-29T19:23:59.716Z,26.64
2022-08-29T19:26:43.818Z,26.80
2022-08-29T19:29:17.097Z,26.85
2022-08-29T19:32:00.054Z,27.02
2022-08-29T19:34:31.336Z,27.12
2022-08-29T19:37:25.105Z,27.25
2022-08-29T19:39:58.668Z,27.35
2022-08-29T19:42:40.649Z,27.40
2022-08-29T19:45:25.722Z,27.54
2022-08-29T19:48:02.482Z,27.68
2022-08-29T19:50:38.019Z,27.74
2022-08-29T19:53:26.021Z,27.81
2022-08-29T19:56:04.670Z,27.81
2022-08-29T19:58:46.137Z,27.91
2022-08-29T20:01:24.041Z,28.01
2022-08-29T20:03:59.978Z,28.10
2022-08-29T20:06:41.021Z,28.05
2022-08-29T20:09:25.966Z,28.20
2022-08-29T20:11:58.458Z,28.25
2022-08-29T20:14:52.812Z,28.31
2022-08-29T20:17:41.069Z,28.58
2022-08-29T20:20:19.214Z,28.61
2022-08-29T20:22:57.880Z,28.78
2022-08-29T20:25:29.262Z,28.92
2022-08-29T20:28:03.052Z,28.92
2022-08-29T20:30:46.564Z,29.28
2022-08-29T20:33:23.388Z,29.39
2022-08-29T20:36:14.039Z,29.56
2022-08-29T20:38:46.030Z,29.64
2022-08-29T20:41:25.949Z,29.77
2022-08-29T20:43:57.079Z,29.81
2022-08-29T20:46:29.713Z,29.85
2022-08-29T20:49:02.353Z,29.87
2022-08-29T20:51:40.691Z,30.18
2022-08-29T20:54:12.156Z,30.12
2022-08-29T20:56:47.498Z,30.24
2022-08-29T20:59:26.515Z,30.11
2022-08-29T21:01:58.608Z,30.49
2022-08-29T21:04:50.323Z,30.48
2022-08-29T21:07:24.314Z,30.82
2022-08-29T21:09:56.116Z,31.00
2022-08-29T21:12:29.558Z,31.00
2022-08-29T21:15:02.520Z,31.09
2022-08-29T21:17:37.716Z,31.10
2022-08-29T21:20:15.871Z,31.55
2022-08-29T21:22:48.154Z,31.23
2022-08-29T21:25:21.736Z,31.55
2022-08-29T21:27:54.314Z,31.64
2022-08-29T21:30:30.697Z,31.79
2022-08-29T21:33:04.353Z,31.72
2022-08-29T21:35:41.104Z,31.80
2022-08-29T21:38:30.028Z,31.88
2022-08-29T21:41:04.780Z,32.05
2022-08-29T21:43:38.200Z,32.30
2022-08-29T21:46:19.534Z,32.45
2022-08-29T21:48:57.447Z,32.11
2022-08-29T21:51:30.017Z,32.37
2022-08-29T21:54:04.671Z,32.37
2022-08-29T21:56:38.173Z,32.40
2022-08-29T21:59:13.898Z,32.42
2022-08-29T22:01:48.992Z,32.67
2022-08-29T22:04:29.367Z,32.55
2022-08-29T22:07:05.587Z,32.68
2022-08-29T22:09:38.279Z,32.78
2022-08-29T22:12:12.311Z,32.65
2022-08-29T22:15:03.460Z,32.99
2022-08-29T22:17:44.966Z,32.87
2022-08-29T22:20:15.903Z,32.81
2022-08-29T22:22:52.983Z,33.00
2022-08-29T22:25:31.902Z,32.78
2022-08-29T22:28:03.878Z,33.19
2022-08-29T22:30:43.302Z,33.00
2022-08-29T22:33:21.464Z,33.29
2022-08-29T22:36:00.257Z,33.30
2022-08-29T22:38:34.183Z,33.36
2022-08-29T22:41:24.249Z,33.54
2022-08-29T22:44:37.701Z,33.65
2022-08-29T22:46:59.298Z,34.29
2022-08-29T22:49:33.480Z,34.23
2022-08-29T22:52:05.678Z,34.44
2022-08-29T22:54:43.561Z,34.56
2022-08-29T22:57:19.251Z,34.69
2022-08-29T22:59:57.207Z,34.64
2022-08-29T23:02:37.377Z,34.72
2022-08-29T23:05:12.680Z,34.64
2022-08-29T23:07:45.195Z,34.61
2022-08-29T23:10:20.465Z,34.95
2022-08-29T23:12:57.163Z,34.93
2022-08-29T23:15:28.463Z,35.08
2022-08-29T23:17:59.208Z,34.79
2022-08-29T23:20:35.858Z,34.99
2022-08-29T23:23:13.022Z,35.08
2022-08-29T23:25:46.760Z,35.21
2022-08-29T23:28:20.030Z,35.05
2022-08-29T23:30:59.603Z,35.24
2022-08-29T23:33:30.638Z,35.44
2022-08-29T23:36:03.516Z,35.46
2022-08-29T23:38:38.033Z,35.58
2022-08-29T23:41:09.125Z,35.73
2022-08-29T23:43:47.190Z,35.72
2022-08-29T23:46:18.340Z,35.79
2022-08-29T23:48:54.365Z,35.89
2022-08-29T23:51:25.517Z,36.01
2022-08-29T23:53:58.817Z,36.29
2022-08-29T23:56:32.221Z,36.31
2022-08-29T23:59:03.134Z,36.46
